Time;durP1;ratioP1;P1;durP2;ratioP2;P2;SDS_P1;SDS_P2;PMS_P1;PMS_P2;Temp;Humidity;BMP_temperature;BMP_pressure;BME280_temperature;BME280_humidity;BME280_pressure;Samples;Min_cycle;Max_cycle;Signal;HPM_P1;HPM_P2
2022/08/28 00:00:56;;;;;;;8.30;3.90;;;;;;;15.33;82.83;100671.31;5006738;28;20204;-81
2022/08/28 00:03:22;;;;;;;9.57;3.70;;;;;;;15.26;83.29;100660.13;5007454;28;20222;-82
2022/08/28 00:05:49;;;;;;;5.57;3.00;;;;;;;15.24;82.95;100667.19;5016299;28;20581;-79
2022/08/28 00:08:17;;;;;;;6.77;3.63;;;;;;;15.31;83.34;100671.34;5019415;28;20224;-80
2022/08/28 00:10:45;;;;;;;10.43;3.57;;;;;;;15.22;83.42;100669.03;5024853;28;20288;-81
2022/08/28 00:13:17;;;;;;;8.60;3.50;;;;;;;15.26;83.20;100673.25;5020397;28;20238;-82
2022/08/28 00:15:45;;;;;;;10.30;3.60;;;;;;;15.21;83.64;100670.81;5016995;28;20302;-81
2022/08/28 00:18:12;;;;;;;10.93;4.03;;;;;;;15.37;83.13;100686.06;5017311;28;20263;-80
2022/08/28 00:20:39;;;;;;;5.30;3.53;;;;;;;15.29;83.16;100694.22;5017356;28;20221;-81
2022/08/28 00:23:06;;;;;;;11.00;3.33;;;;;;;15.17;83.45;100695.50;5016630;28;20198;-82
2022/08/28 00:25:35;;;;;;;8.30;3.87;;;;;;;15.24;83.85;100682.97;5016525;28;20265;-81
2022/08/28 00:28:03;;;;;;;5.27;2.67;;;;;;;15.19;83.36;100704.19;5016601;28;20636;-81
2022/08/28 00:30:32;;;;;;;8.67;3.77;;;;;;;15.14;83.58;100692.94;5017438;28;20211;-81
2022/08/28 00:33:02;;;;;;;8.20;3.47;;;;;;;14.95;84.85;100668.22;5017480;28;20258;-81
2022/08/28 00:35:28;;;;;;;8.80;3.97;;;;;;;14.81;85.47;100637.97;5026486;28;20204;-80
2022/08/28 00:37:56;;;;;;;7.23;3.80;;;;;;;14.75;86.00;100622.41;5037117;28;20209;-81
2022/08/28 00:40:24;;;;;;;9.87;3.07;;;;;;;14.69;86.63;100602.47;5036575;28;20215;-82
2022/08/28 00:42:54;;;;;;;6.17;3.37;;;;;;;14.74;86.58;100610.19;5036904;28;20202;-81
2022/08/28 00:45:21;;;;;;;11.23;3.87;;;;;;;14.66;86.92;100602.53;5036120;28;20580;-82
2022/08/28 00:47:48;;;;;;;9.03;3.97;;;;;;;14.54;87.39;100599.44;5036475;28;20202;-82
2022/08/28 00:50:17;;;;;;;9.40;3.77;;;;;;;14.49;88.33;100586.47;5036654;28;20209;-81
2022/08/28 00:52:44;;;;;;;10.10;3.33;;;;;;;14.38;89.05;100565.78;5037017;28;20602;-82
2022/08/28 00:55:13;;;;;;;8.43;4.00;;;;;;;14.38;89.25;100559.69;5036339;28;20202;-81
2022/08/28 00:57:43;;;;;;;8.73;4.23;;;;;;;14.34;89.18;100558.94;5036747;28;20698;-82
2022/08/28 01:00:13;;;;;;;8.83;3.93;;;;;;;14.38;89.10;100555.28;5037392;28;20279;-82
2022/08/28 01:02:40;;;;;;;10.77;3.37;;;;;;;14.39;89.12;100564.91;5036322;28;20669;-82
2022/08/28 01:05:08;;;;;;;11.20;3.80;;;;;;;14.37;89.66;100564.09;5025063;28;20659;-82
2022/08/28 01:07:35;;;;;;;8.93;4.17;;;;;;;14.37;89.99;100553.59;5034699;28;20575;-79
2022/08/28 01:10:02;;;;;;;8.07;3.83;;;;;;;14.39;89.80;100562.28;5036629;28;20369;-82
2022/08/28 01:12:30;;;;;;;15.43;4.40;;;;;;;14.40;89.89;100558.72;5036946;28;20230;-82
2022/08/28 01:14:59;;;;;;;8.93;4.40;;;;;;;14.43;89.95;100569.16;5036360;28;20229;-81
2022/08/28 01:17:30;;;;;;;6.70;3.90;;;;;;;14.58;89.71;100565.16;5036655;28;20743;-81
2022/08/28 01:20:01;;;;;;;11.03;3.93;;;;;;;14.63;89.05;100589.53;5036975;28;20235;-82
2022/08/28 01:22:36;;;;;;;11.20;4.40;;;;;;;14.65;88.67;100600.00;5037193;28;20207;-82
2022/08/28 01:25:08;;;;;;;8.77;3.70;;;;;;;14.75;88.56;100617.16;5036531;28;20205;-82
2022/08/28 01:27:35;;;;;;;8.00;3.83;;;;;;;14.74;88.80;100625.94;5037265;28;20230;-82
2022/08/28 01:30:01;;;;;;;11.50;4.10;;;;;;;14.74;88.19;100631.19;5036752;28;20230;-80
2022/08/28 01:32:34;;;;;;;8.43;4.17;;;;;;;14.72;88.51;100633.03;5036941;28;20256;-82
2022/08/28 01:35:01;;;;;;;12.77;3.83;;;;;;;14.68;89.00;100627.00;5025412;28;20650;-82
2022/08/28 01:37:28;;;;;;;8.47;3.90;;;;;;;14.81;88.60;100627.47;5034523;28;20212;-82
2022/08/28 01:39:55;;;;;;;10.03;4.20;;;;;;;14.70;88.82;100633.06;5036768;28;20229;-82
2022/08/28 01:42:23;;;;;;;14.57;5.97;;;;;;;14.73;88.96;100631.25;5036875;28;20207;-81
2022/08/28 01:44:51;;;;;;;7.27;4.07;;;;;;;14.71;88.95;100633.94;5036655;28;20210;-82
2022/08/28 01:47:17;;;;;;;9.70;3.87;;;;;;;14.74;88.86;100646.97;5036604;28;20731;-82
2022/08/28 01:49:44;;;;;;;9.63;4.13;;;;;;;14.74;88.99;100636.47;5037344;28;20592;-83
2022/08/28 01:52:10;;;;;;;6.70;3.97;;;;;;;14.70;89.11;100646.19;5038511;28;20202;-81
2022/08/28 01:54:37;;;;;;;5.23;3.77;;;;;;;14.68;89.70;100634.88;5040526;28;20268;-82
2022/08/28 01:57:03;;;;;;;11.47;3.77;;;;;;;14.71;88.97;100647.09;5040057;28;20209;-82
2022/08/28 01:59:32;;;;;;;10.20;4.23;;;;;;;14.80;88.85;100654.66;5040042;28;20280;-81
2022/08/28 02:01:58;;;;;;;8.60;4.47;;;;;;;14.86;88.51;100661.47;5040107;28;20206;-82
2022/08/28 02:04:25;;;;;;;8.23;4.10;;;;;;;14.78;88.23;100669.59;5033349;28;20574;-82
2022/08/28 02:06:51;;;;;;;6.57;4.40;;;;;;;14.72;87.97;100675.06;5032545;28;20237;-82
2022/08/28 02:09:18;;;;;;;9.50;4.13;;;;;;;14.86;87.93;100693.88;5040122;28;20227;-81
2022/08/28 02:11:45;;;;;;;6.43;3.70;;;;;;;14.87;88.00;100682.44;5040458;28;20214;-82
2022/08/28 02:14:11;;;;;;;10.10;3.83;;;;;;;14.85;88.22;100694.78;5039576;28;20654;-82
2022/08/28 02:16:39;;;;;;;8.70;4.20;;;;;;;14.93;87.86;100693.69;5039633;28;20229;-80
2022/08/28 02:19:05;;;;;;;10.83;4.17;;;;;;;14.86;87.95;100699.13;5039411;28;20237;-82
2022/08/28 02:21:32;;;;;;;6.20;4.23;;;;;;;14.92;87.67;100699.84;5039764;28;20217;-82
2022/08/28 02:23:58;;;;;;;6.97;3.87;;;;;;;14.97;87.57;100700.56;5039947;28;20233;-81
2022/08/28 02:26:24;;;;;;;7.97;3.40;;;;;;;15.11;87.18;100716.72;5039865;28;20248;-81
2022/08/28 02:28:51;;;;;;;6.43;3.70;;;;;;;15.05;86.77;100730.09;5039122;28;20222;-82
2022/08/28 02:31:17;;;;;;;11.93;4.27;;;;;;;15.08;86.71;100730.84;5039393;28;20264;-82
2022/08/28 02:33:46;;;;;;;5.23;3.73;;;;;;;15.20;86.21;100752.38;5033101;28;20227;-82
2022/08/28 02:36:14;;;;;;;5.80;3.43;;;;;;;15.21;86.27;100743.59;5030333;28;20202;-80
2022/08/28 02:38:42;;;;;;;8.80;4.07;;;;;;;15.26;85.88;100753.03;5039259;28;20280;-81
2022/08/28 02:41:08;;;;;;;8.87;4.13;;;;;;;15.43;84.93;100775.28;5039726;28;20202;-81
2022/08/28 02:43:35;;;;;;;10.37;4.43;;;;;;;15.37;85.12;100778.97;5039176;28;20233;-81
2022/08/28 02:46:01;;;;;;;6.73;3.63;;;;;;;15.35;84.59;100778.16;5039219;28;20207;-82
2022/08/28 02:48:30;;;;;;;9.73;4.57;;;;;;;15.38;85.04;100787.72;5039795;28;20273;-82
2022/08/28 02:50:59;;;;;;;5.07;3.17;;;;;;;15.28;85.49;100768.75;5039136;28;20644;-79
2022/08/28 02:53:27;;;;;;;8.30;4.30;;;;;;;15.09;86.30;100737.81;5039317;28;20688;-81
2022/08/28 02:55:53;;;;;;;8.47;4.03;;;;;;;14.99;86.91;100720.63;5039007;28;20211;-82
2022/08/28 02:58:19;;;;;;;6.87;4.30;;;;;;;14.91;87.44;100706.03;5039445;28;20590;-82
2022/08/28 03:00:46;;;;;;;7.70;3.70;;;;;;;14.96;87.53;100698.81;5038940;28;20211;-82
2022/08/28 03:03:12;;;;;;;6.43;3.67;;;;;;;15.15;86.78;100707.81;5034274;28;20648;-82
2022/08/28 03:05:39;;;;;;;10.67;3.67;;;;;;;15.09;86.44;100723.81;5029866;28;20203;-82
2022/08/28 03:08:08;;;;;;;7.47;4.07;;;;;;;15.02;86.97;100719.66;5038602;28;20205;-81
2022/08/28 03:10:35;;;;;;;8.03;4.77;;;;;;;14.95;87.23;100708.50;5039027;28;20264;-80
2022/08/28 03:13:01;;;;;;;6.87;3.57;;;;;;;14.85;88.21;100688.69;5038905;28;20226;-82
2022/08/28 03:15:27;;;;;;;8.37;3.63;;;;;;;14.80;88.39;100673.03;5038347;28;20572;-82
2022/08/28 03:17:56;;;;;;;6.87;3.90;;;;;;;14.78;88.91;100659.09;5038237;28;20207;-79
2022/08/28 03:20:22;;;;;;;7.33;4.47;;;;;;;14.81;88.84;100652.91;5038531;28;20295;-82
2022/08/28 03:25:34;;;;;;;13.33;3.87;;;;;;;14.77;88.73;100672.31;5038250;28;20205;-80
2022/08/28 03:28:01;;;;;;;10.90;3.90;;;;;;;14.70;89.10;100663.75;5038799;28;20750;-80
2022/08/28 03:30:27;;;;;;;7.07;3.50;;;;;;;14.67;89.20;100659.47;5037790;28;20207;-80
2022/08/28 03:32:53;;;;;;;6.10;3.80;;;;;;;14.69;89.45;100651.53;5035994;28;20210;-81
2022/08/28 03:35:21;;;;;;;10.50;5.30;;;;;;;14.74;89.34;100660.09;5026498;28;20199;-79
2022/08/28 03:37:47;;;;;;;8.47;4.27;;;;;;;14.76;89.55;100660.06;4998977;28;20199;-82
2022/08/28 03:40:14;;;;;;;6.30;3.93;;;;;;;14.66;89.63;100659.50;4999234;28;20645;-82
2022/08/28 03:42:42;;;;;;;11.37;4.53;;;;;;;14.62;89.73;100652.63;4998856;28;20207;-80
2022/08/28 03:45:09;;;;;;;11.50;4.67;;;;;;;14.58;89.74;100641.34;4998355;28;20203;-81
2022/08/28 03:47:36;;;;;;;6.87;3.90;;;;;;;14.59;89.81;100644.81;4998803;28;20205;-81
2022/08/28 03:50:04;;;;;;;7.83;4.10;;;;;;;14.59;89.92;100642.19;4998857;28;20278;-82
2022/08/28 03:52:31;;;;;;;8.90;4.33;;;;;;;14.55;90.20;100641.44;4998444;28;20207;-81
2022/08/28 03:54:58;;;;;;;6.60;3.80;;;;;;;14.56;90.02;100639.66;4998295;28;20713;-81
2022/08/28 03:57:25;;;;;;;8.60;4.07;;;;;;;14.45;90.32;100640.88;4998582;28;20270;-82
2022/08/28 03:59:53;;;;;;;9.67;3.83;;;;;;;14.53;90.35;100655.50;4998589;28;20652;-80
2022/08/28 04:02:20;;;;;;;7.03;3.57;;;;;;;14.54;89.74;100668.59;4998298;28;20270;-82
2022/08/28 04:04:46;;;;;;;6.53;3.47;;;;;;;14.52;89.40;100680.06;5023867;28;20208;-81
2022/08/28 04:07:13;;;;;;;10.60;4.30;;;;;;;14.64;89.33;100685.81;5033623;28;20202;-81
2022/08/28 04:09:39;;;;;;;9.27;3.70;;;;;;;14.65;88.58;100721.72;5037708;28;20574;-82
2022/08/28 04:12:07;;;;;;;9.60;3.80;;;;;;;14.70;88.31;100735.53;5037736;28;20696;-82
2022/08/28 04:14:33;;;;;;;6.87;3.80;;;;;;;14.81;87.50;100750.13;5036237;28;20309;-82
2022/08/28 04:17:01;;;;;;;7.40;3.43;;;;;;;14.92;87.12;100766.41;5037443;28;20214;-82
2022/08/28 04:19:28;;;;;;;9.03;3.70;;;;;;;14.98;86.93;100778.50;5037391;28;20222;-81
2022/08/28 04:21:55;;;;;;;7.67;3.57;;;;;;;15.03;86.83;100787.13;5037153;28;20226;-82
2022/08/28 04:24:21;;;;;;;8.47;3.63;;;;;;;14.85;87.04;100776.25;5037014;28;20241;-82
2022/08/28 04:26:47;;;;;;;10.53;3.97;;;;;;;14.70;88.24;100751.31;5038001;28;20237;-82
2022/08/28 04:29:14;;;;;;;14.87;4.20;;;;;;;14.53;88.92;100722.06;5037916;28;20256;-82
2022/08/28 04:31:41;;;;;;;7.83;3.27;;;;;;;14.44;89.88;100698.69;5037545;28;20203;-83
2022/08/28 04:34:09;;;;;;;6.47;3.43;;;;;;;14.34;90.01;100681.50;5031609;28;20218;-82
2022/08/28 04:36:37;;;;;;;7.60;3.63;;;;;;;14.37;90.04;100678.75;5029059;28;20661;-81
2022/08/28 04:39:07;;;;;;;7.60;3.40;;;;;;;14.27;90.41;100672.94;5037192;28;20253;-82
2022/08/28 04:41:34;;;;;;;5.10;3.37;;;;;;;14.16;90.91;100652.28;5037479;28;20206;-82
2022/08/28 04:44:01;;;;;;;12.67;3.97;;;;;;;14.19;90.79;100646.94;5037623;28;20272;-82
2022/08/28 04:46:27;;;;;;;7.40;3.80;;;;;;;14.17;91.08;100648.75;5037077;28;20202;-82
2022/08/28 04:48:55;;;;;;;26.37;4.77;;;;;;;14.08;91.29;100647.25;5037364;28;20595;-80
2022/08/28 04:51:22;;;;;;;7.93;3.40;;;;;;;14.10;91.47;100639.34;5037151;28;20260;-78
2022/08/28 04:53:49;;;;;;;9.87;3.93;;;;;;;14.07;91.45;100640.28;5037573;28;20222;-79
2022/08/28 04:56:16;;;;;;;5.80;3.50;;;;;;;14.21;91.46;100642.50;5036653;28;20680;-80
2022/08/28 04:58:44;;;;;;;6.53;3.57;;;;;;;14.12;91.93;100650.66;5036401;28;20226;-78
2022/08/28 05:01:14;;;;;;;7.80;3.27;;;;;;;14.15;92.22;100637.41;5036420;28;20241;-82
2022/08/28 05:03:40;;;;;;;11.17;4.07;;;;;;;14.22;92.07;100643.34;5030906;28;20217;-82
2022/08/28 05:06:07;;;;;;;8.10;3.97;;;;;;;14.25;91.83;100648.50;5017865;28;20739;-80
2022/08/28 05:08:35;;;;;;;6.97;4.30;;;;;;;14.25;91.42;100659.00;5034821;28;20645;-80
2022/08/28 05:11:10;;;;;;;7.83;3.70;;;;;;;14.35;91.44;100672.69;5036825;28;20206;-80
2022/08/28 05:13:37;;;;;;;11.10;3.93;;;;;;;14.43;90.87;100683.81;5036470;28;20229;-82
2022/08/28 05:16:04;;;;;;;5.03;3.63;;;;;;;14.41;90.54;100689.16;5036289;28;20206;-81
2022/08/28 05:18:30;;;;;;;10.47;3.63;;;;;;;14.50;90.36;100704.59;5036185;28;20225;-81
2022/08/28 05:20:57;;;;;;;7.57;3.63;;;;;;;14.61;89.63;100720.09;5036467;28;20222;-80
2022/08/28 05:23:24;;;;;;;8.43;3.80;;;;;;;14.64;89.51;100748.03;5036602;28;20263;-79
2022/08/28 05:25:51;;;;;;;8.67;3.80;;;;;;;14.57;89.42;100733.34;5037555;28;20591;-81
2022/08/28 05:28:18;;;;;;;8.57;3.60;;;;;;;14.51;90.23;100731.75;5041420;28;20654;-82
2022/08/28 05:30:45;;;;;;;11.30;4.30;;;;;;;14.59;89.74;100734.16;5040289;28;20213;-82
2022/08/28 05:33:14;;;;;;;8.07;3.10;;;;;;;14.58;89.77;100741.19;5040377;28;20256;-80
2022/08/28 05:35:42;;;;;;;7.57;3.53;;;;;;;14.55;90.15;100732.50;5033686;28;20226;-81
2022/08/28 05:38:10;;;;;;;7.13;3.20;;;;;;;14.65;89.32;100740.09;5034880;28;20202;-81
2022/08/28 05:40:42;;;;;;;7.20;3.57;;;;;;;14.86;88.54;100761.34;5040063;28;20625;-81
2022/08/28 05:43:13;;;;;;;7.30;3.70;;;;;;;14.80;88.06;100786.03;5040131;28;20316;-80
2022/08/28 05:45:40;;;;;;;6.13;3.63;;;;;;;14.89;87.71;100795.44;5039703;28;20210;-79
2022/08/28 05:48:06;;;;;;;7.33;3.70;;;;;;;15.01;87.00;100818.69;5039594;28;20210;-81
2022/08/28 05:50:32;;;;;;;6.43;3.40;;;;;;;14.90;87.21;100836.56;5040181;28;20210;-81
2022/08/28 05:53:00;;;;;;;8.37;3.13;;;;;;;14.97;87.11;100832.84;5040658;28;20632;-82
2022/08/28 05:55:26;;;;;;;8.43;3.63;;;;;;;15.07;86.85;100838.69;5039422;28;20229;-80
2022/08/28 05:57:53;;;;;;;6.83;3.23;;;;;;;15.03;87.00;100835.28;5039696;28;20214;-82
2022/08/28 06:00:20;;;;;;;6.10;3.27;;;;;;;15.04;86.84;100842.28;5039956;28;20202;-81
2022/08/28 06:02:47;;;;;;;10.03;3.10;;;;;;;15.19;86.74;100845.34;5040087;28;20206;-81
2022/08/28 06:05:14;;;;;;;22.00;3.77;;;;;;;15.17;86.81;100852.41;5035874;28;20680;-81
2022/08/28 06:07:40;;;;;;;6.90;3.17;;;;;;;15.19;85.89;100861.13;5028612;28;20214;-80
2022/08/28 06:10:08;;;;;;;5.47;2.90;;;;;;;15.17;85.75;100884.81;5019914;28;20226;-81
2022/08/28 06:12:34;;;;;;;5.73;3.10;;;;;;;15.30;85.76;100880.03;5020974;28;20210;-81
2022/08/28 06:15:00;;;;;;;8.13;2.97;;;;;;;15.38;85.70;100891.19;5019496;28;20273;-81
2022/08/28 06:17:28;;;;;;;6.33;2.87;;;;;;;15.48;85.05;100903.13;5020587;28;20218;-81
2022/08/28 06:19:54;;;;;;;10.60;3.40;;;;;;;15.48;84.25;100932.09;5019464;28;20856;-82
2022/08/28 06:22:21;;;;;;;8.77;3.20;;;;;;;15.46;83.69;100948.81;5019701;28;20204;-82
2022/08/28 06:24:47;;;;;;;6.57;3.00;;;;;;;15.41;84.46;100945.47;5019581;28;20226;-80
2022/08/28 06:27:15;;;;;;;9.57;3.10;;;;;;;15.30;84.58;100927.38;5017445;28;20276;-85
2022/08/28 06:29:43;;;;;;;7.97;3.23;;;;;;;15.25;85.80;100900.38;5020467;28;20257;-85
2022/08/28 06:32:09;;;;;;;8.73;3.03;;;;;;;15.37;85.23;100897.34;5020023;28;20222;-85
2022/08/28 06:34:38;;;;;;;8.47;2.73;;;;;;;15.41;83.84;100922.66;5021647;28;20235;-85
2022/08/28 06:37:09;;;;;;;8.70;3.73;;;;;;;15.51;83.81;100946.91;5024572;28;20212;-86
2022/08/28 06:39:37;;;;;;;8.13;3.37;;;;;;;15.54;83.73;100952.09;5020421;28;20239;-85
2022/08/28 06:42:04;;;;;;;6.57;2.70;;;;;;;15.49;84.05;100959.25;5011536;28;20200;-84
2022/08/28 06:44:31;;;;;;;8.40;3.67;;;;;;;15.51;84.09;100951.31;5009077;28;20259;-84
2022/08/28 06:46:57;;;;;;;6.53;3.13;;;;;;;15.60;84.06;100956.25;5007444;28;20204;-85
2022/08/28 06:49:24;;;;;;;8.10;2.80;;;;;;;15.67;83.32;100971.81;5007965;28;20248;-84
2022/08/28 06:51:52;;;;;;;8.63;3.03;;;;;;;15.61;82.89;100994.84;5009269;28;20200;-85
2022/08/28 06:54:18;;;;;;;5.07;2.80;;;;;;;15.64;82.37;101013.19;5008086;28;20281;-84
2022/08/28 06:56:45;;;;;;;5.53;2.50;;;;;;;15.70;82.60;101010.38;5009467;28;20211;-84
2022/08/28 06:59:11;;;;;;;5.70;2.87;;;;;;;15.67;82.96;100999.91;5010727;28;20694;-84
2022/08/28 07:01:38;;;;;;;4.00;2.33;;;;;;;15.82;82.18;101010.00;5011114;28;20231;-85
2022/08/28 07:04:06;;;;;;;11.20;3.53;;;;;;;15.96;82.17;101021.88;5010078;28;20201;-83
2022/08/28 07:06:36;;;;;;;7.63;2.63;;;;;;;16.05;81.79;101038.25;5016809;28;20204;-85
2022/08/28 07:09:05;;;;;;;6.13;2.60;;;;;;;15.99;81.20;101056.84;5012256;28;20227;-84
2022/08/28 07:11:33;;;;;;;7.83;3.13;;;;;;;16.03;80.71;101060.25;5008232;28;20206;-84
2022/08/28 07:14:01;;;;;;;6.17;2.60;;;;;;;16.01;80.58;101075.25;5007642;28;20649;-84
2022/08/28 07:16:30;;;;;;;5.33;2.47;;;;;;;16.14;80.69;101073.94;5006931;28;20618;-83
2022/08/28 07:18:57;;;;;;;4.23;2.87;;;;;;;16.21;80.20;101085.13;5008424;28;20228;-83
2022/08/28 07:21:23;;;;;;;7.47;3.57;;;;;;;16.28;79.54;101107.75;5009472;28;20226;-82
2022/08/28 07:23:50;;;;;;;5.90;2.73;;;;;;;16.18;79.76;101109.81;5007708;28;20200;-84
2022/08/28 07:26:22;;;;;;;13.33;2.70;;;;;;;16.28;79.40;101115.66;5008811;28;20200;-84
2022/08/28 07:28:49;;;;;;;5.70;2.63;;;;;;;16.27;78.56;101124.47;5007548;28;20219;-85
2022/08/28 07:31:17;;;;;;;4.97;2.50;;;;;;;16.11;79.15;101126.72;5008200;28;20294;-85
2022/08/28 07:33:44;;;;;;;5.33;2.13;;;;;;;16.19;79.13;101114.16;5009163;28;20232;-84
2022/08/28 07:36:14;;;;;;;7.23;3.20;;;;;;;16.18;79.28;101114.22;5011195;28;20223;-82
2022/08/28 07:38:43;;;;;;;7.87;2.87;;;;;;;16.29;79.35;101098.91;5009404;28;20225;-83
2022/08/28 07:41:13;;;;;;;9.47;2.40;;;;;;;16.11;78.72;101124.06;5007930;28;20259;-85
2022/08/28 07:46:30;;;;;;;5.87;2.30;;;;;;;16.23;78.73;101131.63;5006266;28;20222;-84
2022/08/28 07:48:58;;;;;;;5.10;3.20;;;;;;;16.30;79.04;101099.81;5006794;28;20715;-83
2022/08/28 07:51:25;;;;;;;8.17;3.00;;;;;;;16.28;77.95;101144.63;5009189;28;20200;-81
2022/08/28 07:53:52;;;;;;;7.17;3.13;;;;;;;16.42;77.16;101154.75;5004880;28;20265;-82
2022/08/28 07:56:19;;;;;;;9.57;2.50;;;;;;;16.40;77.59;101162.69;5004289;28;20231;-82
2022/08/28 07:58:47;;;;;;;5.93;2.20;;;;;;;16.50;76.73;101197.53;5008106;28;20270;-84
2022/08/28 08:01:15;;;;;;;5.20;2.23;;;;;;;16.61;76.33;101202.44;5003284;28;20207;-84
2022/08/28 08:03:41;;;;;;;4.17;2.20;;;;;;;16.71;75.88;101221.47;5005947;28;20589;-84
2022/08/28 08:06:17;;;;;;;7.00;2.47;;;;;;;16.72;75.14;101245.16;5008636;28;20323;-83
2022/08/28 08:08:45;;;;;;;7.43;2.47;;;;;;;16.67;74.98;101253.22;5008534;28;20217;-83
2022/08/28 08:11:16;;;;;;;4.93;2.80;;;;;;;16.80;75.10;101258.94;4996067;28;20217;-81
2022/08/28 08:13:43;;;;;;;5.33;2.83;;;;;;;16.90;73.99;101278.03;4995747;28;20278;-82
2022/08/28 08:16:14;;;;;;;7.57;3.30;;;;;;;16.89;74.64;101273.66;4995031;28;20279;-80
2022/08/28 08:18:42;;;;;;;8.70;2.50;;;;;;;16.91;73.93;101277.13;5008303;28;20232;-79
2022/08/28 08:21:10;;;;;;;5.83;2.03;;;;;;;16.83;73.11;101330.09;5008360;28;20284;-81
2022/08/28 08:23:37;;;;;;;7.00;2.30;;;;;;;17.01;73.04;101315.47;5006798;28;20283;-79
2022/08/28 08:26:06;;;;;;;5.50;2.03;;;;;;;17.13;72.15;101340.59;5007406;28;20220;-82
2022/08/28 08:28:36;;;;;;;4.93;2.43;;;;;;;17.09;73.01;101338.97;5010075;28;20231;-82
2022/08/28 08:31:05;;;;;;;6.53;3.17;;;;;;;17.12;71.81;101345.91;5008025;28;20204;-80
2022/08/28 08:33:33;;;;;;;10.30;3.67;;;;;;;17.21;71.69;101348.28;5000130;28;20669;-79
2022/08/28 08:36:00;;;;;;;4.57;2.00;;;;;;;17.17;72.49;101341.38;5000115;28;20220;-81
2022/08/28 08:38:28;;;;;;;7.83;2.70;;;;;;;17.24;71.90;101332.34;5000238;28;20241;-81
2022/08/28 08:40:58;;;;;;;7.10;2.20;;;;;;;17.33;71.38;101355.78;5004451;28;20672;-84
2022/08/28 08:43:25;;;;;;;5.60;2.10;;;;;;;17.43;70.45;101372.19;5003244;28;20254;-81
2022/08/28 08:45:52;;;;;;;6.07;2.53;;;;;;;17.47;70.19;101400.22;5006006;28;20579;-80
2022/08/28 08:48:27;;;;;;;8.67;2.37;;;;;;;17.52;68.83;101414.16;5005547;28;20787;-80
2022/08/28 08:50:59;;;;;;;5.07;2.20;;;;;;;17.67;69.62;101429.47;5006207;28;20254;-80
2022/08/28 08:53:36;;;;;;;3.77;2.43;;;;;;;17.75;67.83;101466.19;5004828;28;20204;-79
2022/08/28 08:56:05;;;;;;;5.77;2.43;;;;;;;17.97;67.27;101482.22;5005266;28;20249;-80
2022/08/28 08:58:35;;;;;;;10.00;2.93;;;;;;;18.09;67.47;101507.38;5015802;28;20257;-79
2022/08/28 09:01:08;;;;;;;6.17;2.37;;;;;;;18.05;67.91;101476.69;5027152;28;20196;-80
2022/08/28 09:03:49;;;;;;;4.90;2.50;;;;;;;17.93;69.02;101461.25;5036802;28;20209;-80
2022/08/28 09:06:26;;;;;;;7.10;2.63;;;;;;;17.61;68.11;101457.84;5027568;28;20205;-79
2022/08/28 09:08:58;;;;;;;6.00;2.50;;;;;;;17.37;67.53;101459.50;5021197;28;20229;-80
2022/08/28 09:11:37;;;;;;;6.33;2.37;;;;;;;17.40;68.21;101455.00;5034117;28;20212;-79
2022/08/28 09:14:12;;;;;;;5.37;1.97;;;;;;;17.56;67.96;101449.22;5003823;28;20198;-78
2022/08/28 09:16:42;;;;;;;5.60;2.37;;;;;;;17.86;67.38;101460.59;5003206;28;20232;-80
2022/08/28 09:19:12;;;;;;;5.13;1.83;;;;;;;18.17;66.84;101484.19;4997807;28;20231;-80
2022/08/28 09:21:43;;;;;;;4.97;2.40;;;;;;;18.18;65.03;101536.16;4996728;28;20217;-80
2022/08/28 09:24:18;;;;;;;5.43;1.70;;;;;;;18.05;63.56;101569.16;4999012;28;20209;-81
2022/08/28 09:26:51;;;;;;;4.07;2.30;;;;;;;17.98;63.46;101612.56;4996017;28;20233;-80
2022/08/28 09:29:23;;;;;;;7.13;2.20;;;;;;;18.23;64.07;101597.63;4997272;28;20229;-79
2022/08/28 09:31:51;;;;;;;5.53;2.23;;;;;;;18.44;64.42;101588.16;4996684;28;20244;-80
2022/08/28 09:34:22;;;;;;;5.40;2.00;;;;;;;18.39;63.19;101607.72;4996543;28;20210;-80
2022/08/28 09:36:51;;;;;;;6.10;2.13;;;;;;;18.17;63.90;101597.84;5022336;28;20231;-80
2022/08/28 09:39:20;;;;;;;6.90;2.77;;;;;;;18.05;65.75;101548.03;5031961;28;20220;-79
2022/08/28 09:44:55;;;;;;;4.10;2.40;;;;;;;18.13;63.97;101540.72;5016258;28;20211;-79
2022/08/28 09:47:38;;;;;;;5.73;2.40;;;;;;;18.33;63.33;101565.63;5017237;28;20203;-80
2022/08/28 09:50:17;;;;;;;5.40;2.00;;;;;;;18.32;61.73;101620.28;5016768;28;20248;-80
2022/08/28 09:52:45;;;;;;;3.80;2.00;;;;;;;18.33;61.84;101629.94;5016316;28;20243;-80
2022/08/28 09:55:18;;;;;;;5.33;2.23;;;;;;;18.44;61.79;101646.31;5016718;28;20228;-79
2022/08/28 09:57:45;;;;;;;5.80;2.30;;;;;;;18.62;61.08;101673.09;5015821;28;20214;-79
2022/08/28 10:00:13;;;;;;;6.57;2.13;;;;;;;18.81;61.39;101673.34;5016276;28;20249;-79
2022/08/28 10:02:45;;;;;;;4.37;2.00;;;;;;;18.93;60.99;101665.03;5017173;28;20273;-78
2022/08/28 10:05:16;;;;;;;6.43;2.60;;;;;;;18.64;60.88;101656.25;5016957;28;20260;-81
2022/08/28 10:07:50;;;;;;;4.43;2.40;;;;;;;18.71;61.76;101637.50;5025172;28;20237;-79
2022/08/28 10:10:27;;;;;;;5.40;2.07;;;;;;;18.69;60.46;101669.34;5016534;28;20684;-80
2022/08/28 10:13:02;;;;;;;4.93;2.00;;;;;;;18.86;60.12;101674.06;5018121;28;20209;-79
2022/08/28 10:15:40;;;;;;;4.13;1.80;;;;;;;18.93;60.08;101672.97;5020001;28;20759;-80
2022/08/28 10:18:19;;;;;;;5.20;1.90;;;;;;;19.02;59.29;101683.22;5020112;28;20214;-79
2022/08/28 10:20:54;;;;;;;3.77;2.03;;;;;;;18.82;58.89;101714.78;5020374;28;20684;-80
2022/08/28 10:23:31;;;;;;;2.60;1.83;;;;;;;19.15;59.44;101696.91;5020233;28;20363;-81
2022/08/28 10:26:19;;;;;;;7.17;2.50;;;;;;;19.40;58.90;101711.91;5020023;28;20272;-80
2022/08/28 10:29:06;;;;;;;3.70;1.80;;;;;;;19.29;58.97;101711.44;5019695;28;20657;-80
2022/08/28 10:31:46;;;;;;;4.27;1.73;;;;;;;19.36;59.08;101689.13;5020115;28;20693;-80
2022/08/28 10:34:30;;;;;;;6.83;2.63;;;;;;;19.41;57.57;101721.59;5019989;28;20731;-80
2022/08/28 10:37:04;;;;;;;3.33;1.87;;;;;;;19.47;57.50;101734.63;5020795;28;20693;-80
2022/08/28 10:39:46;;;;;;;3.93;2.00;;;;;;;19.50;58.28;101723.06;5037436;28;20217;-81
2022/08/28 10:42:17;;;;;;;3.90;1.70;;;;;;;19.41;56.53;101746.28;5038967;28;20646;-79
2022/08/28 10:44:51;;;;;;;3.10;1.70;;;;;;;19.50;55.97;101753.03;5038691;28;20209;-79
2022/08/28 10:47:21;;;;;;;6.63;2.30;;;;;;;19.77;57.10;101761.81;5039545;28;20204;-81
2022/08/28 10:49:51;;;;;;;3.20;2.00;;;;;;;19.76;55.33;101791.03;5039355;28;20233;-78
2022/08/28 10:52:22;;;;;;;3.33;1.87;;;;;;;19.62;56.05;101795.00;5039615;28;20240;-79
2022/08/28 10:54:54;;;;;;;3.27;1.50;;;;;;;19.63;55.99;101786.13;5039141;28;20206;-78
2022/08/28 10:57:29;;;;;;;5.03;1.93;;;;;;;19.77;56.27;101774.22;5039855;28;20234;-79
2022/08/28 10:59:56;;;;;;;5.10;1.63;;;;;;;19.97;56.35;101760.25;5038791;28;20225;-78
2022/08/28 11:02:26;;;;;;;3.80;2.00;;;;;;;20.11;54.57;101783.59;5039136;28;20260;-77
2022/08/28 11:04:55;;;;;;;3.27;1.97;;;;;;;19.99;53.41;101859.97;5035709;28;20257;-79
2022/08/28 11:07:29;;;;;;;6.47;2.07;;;;;;;20.09;53.24;101864.97;5028148;28;20226;-80
2022/08/28 11:10:17;;;;;;;4.50;2.03;;;;;;;20.14;54.08;101857.72;5039481;28;20295;-80
2022/08/28 11:12:44;;;;;;;3.20;1.70;;;;;;;20.18;54.61;101816.91;5039236;28;20631;-80
2022/08/28 11:15:50;;;;;;;3.97;1.87;;;;;;;19.96;53.73;101838.00;5038058;28;20207;-79
2022/08/28 11:18:44;;;;;;;4.17;2.03;;;;;;;20.08;53.77;101845.53;4997331;28;20262;-79
2022/08/28 11:21:19;;;;;;;4.37;1.70;;;;;;;20.33;53.87;101821.63;4996498;28;20224;-80
2022/08/28 11:23:50;;;;;;;4.53;1.73;;;;;;;20.31;52.56;101846.47;5027081;28;20255;-81
2022/08/28 11:26:29;;;;;;;3.53;1.87;;;;;;;20.38;53.61;101867.41;5038591;28;20213;-81
2022/08/28 11:28:56;;;;;;;3.23;2.23;;;;;;;20.77;52.94;101860.66;5038609;28;20225;-79
2022/08/28 11:31:30;;;;;;;3.83;1.93;;;;;;;20.85;51.16;101900.19;5038017;28;20218;-78
2022/08/28 11:33:58;;;;;;;4.80;1.80;;;;;;;21.29;50.67;101917.03;5038408;28;20212;-78
2022/08/28 11:36:57;;;;;;;4.83;2.00;;;;;;;22.50;47.84;101980.22;5021648;28;20744;-79
2022/08/28 11:39:23;;;;;;;4.60;1.80;;;;;;;22.52;47.69;102075.97;5020607;28;20265;-81
2022/08/28 11:42:30;;;;;;;3.50;1.63;;;;;;;23.68;45.59;102085.81;5017947;28;20207;-79